createdAt,value
2022-11-09T00:01:03.637Z,8.71
2022-11-09T00:03:30.590Z,8.62
2022-11-09T00:05:59.339Z,8.69
2022-11-09T00:08:27.052Z,8.71
2022-11-09T00:10:54.185Z,8.71
2022-11-09T00:13:22.138Z,8.61
2022-11-09T00:15:49.574Z,8.58
2022-11-09T00:18:16.488Z,8.63
2022-11-09T00:20:47.726Z,8.70
2022-11-09T00:23:16.353Z,8.57
2022-11-09T00:25:43.640Z,8.63
2022-11-09T00:28:10.660Z,8.56
2022-11-09T00:30:37.674Z,8.65
2022-11-09T00:33:04.641Z,8.68
2022-11-09T00:35:31.763Z,8.54
2022-11-09T00:37:58.864Z,8.65
2022-11-09T00:40:25.850Z,8.69
2022-11-09T00:42:52.855Z,8.58
2022-11-09T00:45:20.375Z,8.54
2022-11-09T00:47:47.311Z,8.62
2022-11-09T00:50:14.258Z,8.64
2022-11-09T00:52:41.265Z,8.63
2022-11-09T00:55:08.733Z,8.60
2022-11-09T00:57:35.667Z,8.51
2022-11-09T01:00:02.842Z,8.55
2022-11-09T01:02:29.734Z,8.58
2022-11-09T01:04:57.103Z,8.51
2022-11-09T01:07:24.011Z,8.55
2022-11-09T01:09:50.945Z,8.54
2022-11-09T01:12:17.853Z,8.46
2022-11-09T01:14:44.919Z,8.46
2022-11-09T01:17:11.835Z,8.44
2022-11-09T01:19:38.752Z,8.46
2022-11-09T01:22:05.655Z,8.49
2022-11-09T01:24:32.590Z,8.42
2022-11-09T01:26:59.494Z,8.37
2022-11-09T01:29:26.417Z,8.45
2022-11-09T01:31:55.988Z,8.44
2022-11-09T01:34:23.000Z,8.41
2022-11-09T01:36:52.670Z,8.38
2022-11-09T01:39:20.030Z,8.34
2022-11-09T01:41:47.608Z,8.39
2022-11-09T01:44:20.115Z,8.25
2022-11-09T01:47:21.901Z,8.25
2022-11-09T01:50:00.144Z,8.22
2022-11-09T01:52:36.898Z,8.18
2022-11-09T01:55:12.651Z,8.20
2022-11-09T01:57:50.082Z,8.28
2022-11-09T02:00:18.252Z,8.17
2022-11-09T02:02:57.258Z,8.15
2022-11-09T02:05:29.726Z,8.14
2022-11-09T02:07:58.389Z,8.02
2022-11-09T02:10:55.081Z,7.99
2022-11-09T02:13:24.811Z,8.02
2022-11-09T02:15:52.828Z,7.93
2022-11-09T02:18:20.413Z,7.98
2022-11-09T02:20:57.833Z,7.94
2022-11-09T02:23:26.876Z,7.90
2022-11-09T02:26:00.311Z,7.86
2022-11-09T02:28:27.934Z,7.92
2022-11-09T02:30:57.096Z,7.84
2022-11-09T02:33:24.562Z,8.00
2022-11-09T02:35:52.002Z,7.85
2022-11-09T02:38:18.950Z,7.78
2022-11-09T02:40:50.172Z,7.81
2022-11-09T02:43:18.413Z,7.76
2022-11-09T02:45:45.682Z,7.73
2022-11-09T02:48:12.656Z,7.79
2022-11-09T02:50:39.629Z,7.77
2022-11-09T02:53:06.640Z,7.64
2022-11-09T02:55:33.606Z,7.76
2022-11-09T02:58:00.601Z,7.63
2022-11-09T03:00:27.548Z,7.70
2022-11-09T03:02:54.740Z,7.63
2022-11-09T03:05:21.684Z,7.64
2022-11-09T03:07:48.618Z,7.64
2022-11-09T03:10:15.705Z,7.67
2022-11-09T03:12:42.735Z,7.64
2022-11-09T03:15:10.205Z,7.68
2022-11-09T03:17:37.425Z,7.62
2022-11-09T03:20:05.118Z,7.74
2022-11-09T03:22:32.195Z,7.69
2022-11-09T03:24:59.112Z,7.62
2022-11-09T03:27:26.075Z,7.74
2022-11-09T03:29:53.003Z,7.73
2022-11-09T03:32:19.922Z,7.67
2022-11-09T03:34:46.874Z,7.68
2022-11-09T03:37:13.866Z,7.74
2022-11-09T03:39:40.847Z,7.68
2022-11-09T03:42:07.785Z,7.64
2022-11-09T03:44:34.698Z,7.62
2022-11-09T03:47:01.724Z,7.72
2022-11-09T03:49:28.678Z,7.64
2022-11-09T03:51:55.566Z,7.66
2022-11-09T03:54:22.508Z,7.60
2022-11-09T03:56:49.378Z,7.62
2022-11-09T03:59:16.347Z,7.65
2022-11-09T04:01:43.312Z,7.60
2022-11-09T04:04:10.414Z,7.59
2022-11-09T04:06:37.355Z,7.63
2022-11-09T04:09:04.406Z,7.69
2022-11-09T04:11:31.420Z,7.59
2022-11-09T04:13:58.401Z,7.61
2022-11-09T04:16:25.449Z,7.53
2022-11-09T04:18:52.400Z,7.56
2022-11-09T04:21:23.708Z,7.56
2022-11-09T04:23:51.088Z,7.45
2022-11-09T04:26:18.106Z,7.59
2022-11-09T04:28:45.129Z,7.55
2022-11-09T04:31:12.060Z,7.50
2022-11-09T04:33:38.988Z,7.49
2022-11-09T04:36:06.200Z,7.49
2022-11-09T04:38:33.250Z,7.51
2022-11-09T04:41:01.952Z,7.47
2022-11-09T04:43:29.129Z,7.41
2022-11-09T04:45:59.146Z,7.47
2022-11-09T04:48:26.176Z,7.39
2022-11-09T04:50:53.154Z,7.36
2022-11-09T04:53:20.380Z,7.38
2022-11-09T04:55:47.656Z,7.39
2022-11-09T04:58:14.581Z,7.40
2022-11-09T05:00:41.555Z,7.40
2022-11-09T05:03:08.833Z,7.32
2022-11-09T05:05:38.304Z,7.29
2022-11-09T05:08:06.510Z,7.32
2022-11-09T05:10:34.240Z,7.33
2022-11-09T05:13:07.055Z,7.25
2022-11-09T05:15:35.749Z,7.32
2022-11-09T05:18:03.808Z,7.21
2022-11-09T05:20:32.004Z,7.23
2022-11-09T05:23:19.305Z,7.28
2022-11-09T05:25:47.599Z,7.25
2022-11-09T05:28:14.956Z,7.27
2022-11-09T05:30:42.003Z,7.19
2022-11-09T05:33:09.041Z,7.21
2022-11-09T05:35:35.973Z,7.22
2022-11-09T05:38:02.977Z,7.16
2022-11-09T05:40:30.049Z,7.15
2022-11-09T05:42:57.011Z,7.30
2022-11-09T05:45:41.939Z,7.21
2022-11-09T05:48:09.882Z,7.33
2022-11-09T05:50:37.630Z,7.20
2022-11-09T05:53:04.755Z,7.19
2022-11-09T05:55:31.684Z,7.24
2022-11-09T05:57:58.748Z,7.32
2022-11-09T06:00:26.562Z,7.39
2022-11-09T06:02:53.867Z,7.35
2022-11-09T06:05:21.680Z,7.41
2022-11-09T06:07:48.659Z,7.55
2022-11-09T06:10:15.644Z,7.49
2022-11-09T06:12:42.601Z,7.45
2022-11-09T06:15:09.897Z,7.53
2022-11-09T06:17:36.802Z,7.61
2022-11-09T06:20:04.526Z,7.65
2022-11-09T06:22:31.772Z,7.48
2022-11-09T06:24:58.786Z,7.52
2022-11-09T06:27:25.708Z,7.66
2022-11-09T06:29:52.665Z,7.77
2022-11-09T06:32:19.599Z,7.79
2022-11-09T06:34:48.342Z,7.77
2022-11-09T06:37:17.866Z,7.82
2022-11-09T06:39:45.445Z,7.88
2022-11-09T06:42:12.405Z,7.82
2022-11-09T06:44:39.684Z,7.90
2022-11-09T06:47:06.577Z,8.19
2022-11-09T06:49:33.500Z,8.12
2022-11-09T06:52:00.416Z,8.20
2022-11-09T06:54:28.148Z,8.64
2022-11-09T06:56:55.813Z,9.05
2022-11-09T06:59:22.909Z,9.32
2022-11-09T07:01:49.938Z,9.24
2022-11-09T07:04:16.930Z,9.34
2022-11-09T07:06:44.385Z,9.34
2022-11-09T07:09:12.952Z,9.14
2022-11-09T07:11:39.955Z,9.05
2022-11-09T07:14:06.899Z,9.20
2022-11-09T07:16:34.245Z,9.35
2022-11-09T07:19:01.200Z,8.98
2022-11-09T07:21:28.170Z,9.02
2022-11-09T07:23:55.162Z,9.00
2022-11-09T07:26:22.091Z,8.98
2022-11-09T07:28:49.082Z,9.07
2022-11-09T07:31:16.021Z,9.03
2022-11-09T07:33:42.990Z,8.93
2022-11-09T07:36:09.912Z,8.99
2022-11-09T07:38:36.814Z,9.16
2022-11-09T07:41:03.845Z,9.30
2022-11-09T07:43:30.921Z,9.33
2022-11-09T07:45:58.149Z,9.24
2022-11-09T07:48:25.044Z,9.30
2022-11-09T07:50:52.029Z,9.35
2022-11-09T07:53:19.384Z,9.23
2022-11-09T07:55:46.586Z,9.40
2022-11-09T07:58:15.794Z,9.60
2022-11-09T08:00:44.086Z,9.86
2022-11-09T08:03:11.440Z,9.96
2022-11-09T08:05:39.643Z,10.06
2022-11-09T08:08:10.412Z,9.93
2022-11-09T08:10:38.446Z,10.11
2022-11-09T08:13:10.044Z,10.23
2022-11-09T08:15:38.414Z,10.28
2022-11-09T08:18:10.344Z,10.67
2022-11-09T08:20:37.657Z,10.71
2022-11-09T08:23:05.296Z,10.91
2022-11-09T08:25:36.177Z,11.24
2022-11-09T08:28:03.915Z,11.33
2022-11-09T08:30:31.247Z,11.57
2022-11-09T08:33:00.372Z,11.86
2022-11-09T08:35:27.954Z,12.33
2022-11-09T08:37:55.343Z,12.81
2022-11-09T08:40:25.726Z,12.84
2022-11-09T08:42:53.220Z,13.32
2022-11-09T08:45:21.058Z,13.17
2022-11-09T08:47:48.276Z,13.63
2022-11-09T08:50:16.296Z,14.23
2022-11-09T08:52:43.200Z,13.76
2022-11-09T08:55:10.639Z,13.54
2022-11-09T08:57:37.639Z,13.04
2022-11-09T09:00:05.985Z,12.46
2022-11-09T09:02:33.052Z,12.57
2022-11-09T09:05:00.185Z,12.64
2022-11-09T09:07:27.372Z,13.20
2022-11-09T09:09:54.343Z,14.37
2022-11-09T09:12:21.622Z,14.51
2022-11-09T09:14:48.642Z,14.66
2022-11-09T09:17:15.848Z,15.40
2022-11-09T09:19:48.779Z,14.65
2022-11-09T09:22:16.903Z,15.00
2022-11-09T09:24:43.840Z,14.47
2022-11-09T09:27:10.736Z,14.45
2022-11-09T09:29:37.748Z,14.11
2022-11-09T09:32:05.155Z,13.91
2022-11-09T09:34:32.070Z,14.27
2022-11-09T09:36:59.023Z,14.22
2022-11-09T09:39:27.096Z,14.62
2022-11-09T09:42:00.735Z,15.06
2022-11-09T09:44:36.882Z,14.80
2022-11-09T09:47:20.112Z,14.47
2022-11-09T09:50:01.449Z,14.80
2022-11-09T09:53:17.765Z,14.75
2022-11-09T09:55:56.715Z,14.76
2022-11-09T09:58:33.353Z,14.24
2022-11-09T10:01:20.506Z,14.48
2022-11-09T10:03:48.557Z,14.93
2022-11-09T10:06:59.133Z,14.66
2022-11-09T10:09:41.021Z,14.36
2022-11-09T10:12:54.292Z,14.29
2022-11-09T10:15:31.547Z,14.32
2022-11-09T10:18:30.433Z,14.08
2022-11-09T10:21:27.662Z,14.47
2022-11-09T10:24:25.518Z,14.32
2022-11-09T10:26:56.886Z,13.96
2022-11-09T10:29:39.545Z,13.67
2022-11-09T10:32:23.517Z,13.70
2022-11-09T10:34:59.981Z,13.87
2022-11-09T10:37:39.558Z,13.56
2022-11-09T10:40:19.467Z,13.99
2022-11-09T10:43:02.722Z,14.19
2022-11-09T10:45:37.901Z,14.09
2022-11-09T10:48:07.580Z,14.18
2022-11-09T10:50:52.944Z,14.07
2022-11-09T10:53:27.831Z,14.35
2022-11-09T10:55:58.803Z,14.21
2022-11-09T10:58:53.159Z,14.13
2022-11-09T11:01:25.584Z,14.20
2022-11-09T11:03:55.552Z,14.11
2022-11-09T11:06:22.348Z,14.11
2022-11-09T11:08:51.106Z,14.03
2022-11-09T11:11:33.758Z,13.98
2022-11-09T11:14:19.858Z,14.05
2022-11-09T11:16:52.500Z,14.11
2022-11-09T11:19:39.676Z,13.81
2022-11-09T11:22:12.492Z,13.93
2022-11-09T11:24:58.973Z,14.00
2022-11-09T11:27:46.359Z,14.36
2022-11-09T11:30:16.702Z,13.98
2022-11-09T11:32:48.945Z,14.13
2022-11-09T11:35:49.083Z,14.32
2022-11-09T11:38:53.202Z,14.22
2022-11-09T11:41:50.827Z,14.19
2022-11-09T11:44:56.704Z,14.13
2022-11-09T11:48:01.066Z,13.97
2022-11-09T11:50:54.869Z,14.24
2022-11-09T11:53:43.219Z,14.27
2022-11-09T11:56:43.219Z,14.07
2022-11-09T11:59:43.770Z,14.07
2022-11-09T12:03:06.528Z,14.20
2022-11-09T12:06:19.204Z,14.76
2022-11-09T12:09:11.168Z,14.65
2022-11-09T12:12:29.134Z,14.55
2022-11-09T12:15:04.871Z,14.78
2022-11-09T12:18:11.611Z,14.58
2022-11-09T12:21:12.441Z,14.50
2022-11-09T12:23:53.792Z,14.38
2022-11-09T12:27:25.629Z,14.35
2022-11-09T12:30:09.373Z,14.08
2022-11-09T12:33:00.262Z,14.11
2022-11-09T12:35:48.139Z,14.10
2022-11-09T12:38:32.197Z,14.17
2022-11-09T12:41:09.151Z,14.06
2022-11-09T12:44:27.007Z,13.97
2022-11-09T12:47:10.322Z,13.85
2022-11-09T12:49:44.463Z,13.76
2022-11-09T12:52:16.728Z,13.90
2022-11-09T12:54:48.946Z,13.96
2022-11-09T12:57:27.697Z,13.99
2022-11-09T13:00:00.312Z,14.17
2022-11-09T13:02:38.314Z,14.05
2022-11-09T13:05:27.080Z,14.00
2022-11-09T13:07:55.250Z,14.09
2022-11-09T13:10:38.919Z,13.82
2022-11-09T13:13:11.215Z,13.84
2022-11-09T13:16:19.517Z,14.14
2022-11-09T13:18:51.930Z,13.88
2022-11-09T13:21:21.849Z,13.74
2022-11-09T13:24:02.193Z,13.70
2022-11-09T13:26:33.696Z,13.57
2022-11-09T13:29:16.098Z,13.66
2022-11-09T13:32:09.082Z,13.43
2022-11-09T13:35:02.730Z,13.46
2022-11-09T13:37:41.869Z,13.25
2022-11-09T13:40:33.269Z,13.24
2022-11-09T13:43:14.355Z,13.26
2022-11-09T13:45:55.274Z,13.13
2022-11-09T13:48:24.879Z,13.17
2022-11-09T13:50:56.500Z,13.14
2022-11-09T13:54:06.120Z,13.04
2022-11-09T13:56:40.074Z,12.98
2022-11-09T13:59:35.152Z,12.88
2022-11-09T14:02:03.393Z,12.89
2022-11-09T14:04:43.671Z,12.94
2022-11-09T14:07:23.472Z,12.83
2022-11-09T14:10:20.928Z,12.93
2022-11-09T14:13:30.074Z,12.90
2022-11-09T14:16:22.457Z,12.91
2022-11-09T14:19:23.016Z,12.72
2022-11-09T14:21:52.512Z,12.78
2022-11-09T14:24:30.793Z,12.79
2022-11-09T14:27:22.146Z,12.81
2022-11-09T14:29:52.392Z,12.84
2022-11-09T14:32:36.272Z,12.81
2022-11-09T14:35:33.596Z,12.71
2022-11-09T14:38:14.392Z,12.76
2022-11-09T14:40:46.276Z,12.89
2022-11-09T14:43:44.470Z,12.64
2022-11-09T14:46:22.620Z,12.63
2022-11-09T14:48:57.018Z,12.73
2022-11-09T14:51:37.785Z,12.67
2022-11-09T14:54:13.247Z,12.68
2022-11-09T14:56:42.582Z,12.55
2022-11-09T14:59:16.724Z,12.62
2022-11-09T15:02:08.208Z,12.57
2022-11-09T15:04:54.280Z,12.48
2022-11-09T15:07:25.176Z,12.48
2022-11-09T15:09:59.387Z,12.51
2022-11-09T15:12:26.793Z,12.56
2022-11-09T15:15:01.604Z,12.56
2022-11-09T15:17:37.890Z,12.31
2022-11-09T15:20:31.105Z,12.34
2022-11-09T15:23:15.067Z,12.33
2022-11-09T15:25:41.868Z,12.26
2022-11-09T15:28:08.665Z,12.27
2022-11-09T15:30:35.535Z,12.28
2022-11-09T15:33:20.066Z,12.19
2022-11-09T15:36:04.969Z,12.16
2022-11-09T15:38:42.942Z,12.15
2022-11-09T15:41:16.761Z,12.08
2022-11-09T15:43:44.195Z,12.02
2022-11-09T15:46:21.994Z,11.96
2022-11-09T15:48:49.449Z,11.88
2022-11-09T15:51:17.298Z,11.95
2022-11-09T15:53:44.531Z,11.93
2022-11-09T15:56:22.540Z,11.98
2022-11-09T15:58:52.447Z,11.83
2022-11-09T16:01:19.722Z,11.86
2022-11-09T16:03:46.709Z,11.90
2022-11-09T16:06:22.416Z,11.97
2022-11-09T16:08:50.640Z,11.91
2022-11-09T16:11:18.227Z,11.95
2022-11-09T16:13:45.370Z,11.92
2022-11-09T16:16:14.736Z,11.92
2022-11-09T16:18:41.795Z,11.91
2022-11-09T16:21:15.366Z,11.81
2022-11-09T16:23:42.625Z,11.86
2022-11-09T16:26:15.948Z,11.65
2022-11-09T16:28:43.588Z,11.70
2022-11-09T16:31:12.815Z,11.72
2022-11-09T16:33:40.641Z,11.70
2022-11-09T16:36:20.296Z,11.67
2022-11-09T16:38:52.565Z,11.69
2022-11-09T16:41:20.490Z,11.79
2022-11-09T16:43:50.723Z,11.86
2022-11-09T16:46:26.429Z,11.79
2022-11-09T16:48:54.002Z,11.75
2022-11-09T16:51:21.519Z,11.75
2022-11-09T16:53:48.459Z,11.75
2022-11-09T16:56:15.513Z,11.59
2022-11-09T16:58:42.479Z,11.53
2022-11-09T17:01:12.376Z,11.39
2022-11-09T17:03:40.569Z,11.38
2022-11-09T17:06:11.311Z,11.37
2022-11-09T17:08:42.409Z,11.32
2022-11-09T17:11:13.393Z,11.35
2022-11-09T17:13:40.790Z,11.28
2022-11-09T17:16:11.396Z,11.19
2022-11-09T17:18:38.884Z,11.14
2022-11-09T17:21:14.778Z,11.09
2022-11-09T17:23:43.120Z,11.10
2022-11-09T17:26:10.783Z,11.02
2022-11-09T17:28:42.751Z,11.06
2022-11-09T17:31:17.269Z,11.08
2022-11-09T17:33:45.130Z,10.96
2022-11-09T17:36:14.728Z,11.08
2022-11-09T17:38:41.693Z,11.03
2022-11-09T17:41:12.216Z,10.92
2022-11-09T17:43:41.542Z,10.93
2022-11-09T17:46:11.454Z,10.93
2022-11-09T17:48:40.653Z,10.83
2022-11-09T17:51:09.419Z,10.84
2022-11-09T17:53:37.143Z,10.78
2022-11-09T17:56:05.105Z,10.89
2022-11-09T17:58:32.186Z,10.78
2022-11-09T18:01:08.611Z,10.92
2022-11-09T18:03:37.207Z,10.84
2022-11-09T18:06:09.812Z,10.91
2022-11-09T18:08:36.776Z,10.75
2022-11-09T18:11:03.875Z,10.72
2022-11-09T18:13:31.193Z,10.92
2022-11-09T18:15:58.158Z,10.92
2022-11-09T18:18:25.408Z,10.82
2022-11-09T18:20:52.302Z,10.84
2022-11-09T18:23:19.260Z,10.81
2022-11-09T18:25:59.632Z,10.84
2022-11-09T18:28:26.712Z,10.80
2022-11-09T18:30:58.954Z,10.77
2022-11-09T18:33:25.842Z,10.74
2022-11-09T18:36:03.187Z,10.67
2022-11-09T18:38:30.448Z,10.72
2022-11-09T18:41:13.434Z,10.73
2022-11-09T18:43:41.086Z,10.70
2022-11-09T18:46:11.213Z,10.75
2022-11-09T18:48:38.620Z,10.62
2022-11-09T18:51:07.629Z,10.59
2022-11-09T18:53:40.913Z,10.68
2022-11-09T18:56:21.612Z,10.73
2022-11-09T18:58:52.953Z,10.71
2022-11-09T19:01:23.069Z,10.57
2022-11-09T19:03:54.978Z,10.58
2022-11-09T19:06:24.992Z,10.63
2022-11-09T19:09:10.704Z,10.68
2022-11-09T19:11:37.825Z,10.74
2022-11-09T19:14:04.768Z,10.66
2022-11-09T19:16:31.878Z,10.73
2022-11-09T19:18:58.850Z,10.69
2022-11-09T19:21:29.656Z,10.71
2022-11-09T19:23:56.735Z,10.69
2022-11-09T19:26:23.905Z,10.60
2022-11-09T19:28:50.860Z,10.71
2022-11-09T19:31:21.794Z,10.72
2022-11-09T19:33:48.815Z,10.65
2022-11-09T19:36:29.695Z,10.63
2022-11-09T19:38:57.793Z,10.59
2022-11-09T19:41:25.512Z,10.58
2022-11-09T19:43:55.898Z,10.54
2022-11-09T19:46:23.103Z,10.57
2022-11-09T19:48:50.329Z,10.50
2022-11-09T19:51:18.530Z,10.45
2022-11-09T19:53:51.718Z,10.32
2022-11-09T19:56:19.773Z,10.38
2022-11-09T19:58:52.253Z,10.34
2022-11-09T20:01:19.746Z,10.32
2022-11-09T20:03:58.153Z,10.31
2022-11-09T20:06:26.500Z,10.29
2022-11-09T20:08:53.917Z,10.20
2022-11-09T20:11:45.081Z,10.24
2022-11-09T20:14:12.929Z,10.26
2022-11-09T20:16:41.665Z,10.18
2022-11-09T20:19:13.014Z,10.12
2022-11-09T20:21:40.354Z,10.12
2022-11-09T20:24:08.591Z,10.05
2022-11-09T20:26:35.721Z,10.05
2022-11-09T20:29:02.732Z,9.95
2022-11-09T20:31:29.680Z,9.93
2022-11-09T20:33:56.861Z,9.91
2022-11-09T20:36:23.766Z,9.86
2022-11-09T20:38:50.948Z,9.74
2022-11-09T20:41:21.643Z,9.77
2022-11-09T20:43:51.336Z,9.81
2022-11-09T20:46:23.750Z,9.78
2022-11-09T20:48:54.614Z,9.69
2022-11-09T20:51:24.350Z,9.59
2022-11-09T20:53:51.571Z,9.55
2022-11-09T20:56:20.254Z,9.49
2022-11-09T20:58:47.385Z,9.61
2022-11-09T21:01:20.766Z,9.53
2022-11-09T21:03:50.845Z,9.51
2022-11-09T21:06:19.591Z,9.44
2022-11-09T21:08:52.121Z,9.35
2022-11-09T21:11:20.595Z,9.43
2022-11-09T21:13:52.215Z,9.34
2022-11-09T21:16:21.588Z,9.29
2022-11-09T21:18:48.990Z,9.31
2022-11-09T21:21:23.127Z,9.29
2022-11-09T21:24:09.225Z,9.21
2022-11-09T21:26:54.939Z,9.18
2022-11-09T21:29:43.134Z,9.18
2022-11-09T21:32:12.166Z,9.18
2022-11-09T21:34:39.244Z,9.14
2022-11-09T21:37:06.317Z,9.05
2022-11-09T21:39:33.436Z,9.13
2022-11-09T21:42:01.625Z,9.05
2022-11-09T21:44:30.769Z,9.04
2022-11-09T21:46:58.680Z,9.04
2022-11-09T21:49:25.664Z,8.97
2022-11-09T21:51:53.079Z,8.91
2022-11-09T21:54:21.259Z,8.88
2022-11-09T21:56:49.419Z,8.91
2022-11-09T21:59:16.388Z,8.81
2022-11-09T22:01:44.124Z,8.84
2022-11-09T22:04:11.401Z,8.81
2022-11-09T22:06:41.371Z,8.85
2022-11-09T22:09:15.275Z,8.73
2022-11-09T22:12:01.868Z,8.82
2022-11-09T22:14:47.779Z,8.63
2022-11-09T22:17:14.969Z,8.64
2022-11-09T22:20:00.858Z,8.56
2022-11-09T22:22:30.004Z,8.53
2022-11-09T22:24:57.135Z,8.55
2022-11-09T22:27:24.345Z,8.52
2022-11-09T22:29:51.374Z,8.54
2022-11-09T22:32:18.407Z,8.40
2022-11-09T22:34:45.349Z,8.42
2022-11-09T22:37:12.339Z,8.46
2022-11-09T22:39:44.385Z,8.41
2022-11-09T22:42:13.901Z,8.40
2022-11-09T22:44:40.839Z,8.37
2022-11-09T22:47:07.945Z,8.32
2022-11-09T22:49:36.693Z,8.35
2022-11-09T22:52:05.101Z,8.30
2022-11-09T22:54:32.193Z,8.27
2022-11-09T22:56:59.145Z,8.34
2022-11-09T22:59:26.192Z,8.29
2022-11-09T23:01:53.191Z,8.30
2022-11-09T23:04:20.263Z,8.38
2022-11-09T23:06:47.217Z,8.36
2022-11-09T23:09:14.279Z,8.43
2022-11-09T23:11:41.336Z,8.53
2022-11-09T23:14:08.535Z,8.49
2022-11-09T23:16:35.511Z,8.38
2022-11-09T23:19:02.431Z,8.50
2022-11-09T23:21:32.530Z,8.51
2022-11-09T23:24:05.764Z,8.56
2022-11-09T23:26:33.975Z,8.49
2022-11-09T23:29:01.192Z,8.45
2022-11-09T23:31:28.185Z,8.50
2022-11-09T23:33:57.962Z,8.39
2022-11-09T23:36:26.671Z,8.49
2022-11-09T23:38:53.854Z,8.39
2022-11-09T23:41:21.397Z,8.37
2022-11-09T23:43:49.833Z,8.55
2022-11-09T23:46:17.975Z,8.50
2022-11-09T23:48:45.211Z,8.39
2022-11-09T23:51:12.372Z,8.55
2022-11-09T23:53:39.897Z,8.58
2022-11-09T23:56:10.275Z,8.55
2022-11-09T23:58:38.087Z,8.55
